sensor_id;sensor_type;location;lat;lon;timestamp;P1;durP1;ratioP1;P2;durP2;ratioP2
40953;SDS011;26686;50.130;8.710;2023-07-31T00:04:44;2.83;;;1.10;;
40953;SDS011;26686;50.130;8.710;2023-07-31T00:09:45;3.47;;;1.02;;
40953;SDS011;26686;50.130;8.710;2023-07-31T00:14:47;3.25;;;1.10;;
40953;SDS011;26686;50.130;8.710;2023-07-31T00:19:48;2.65;;;1.25;;
40953;SDS011;26686;50.130;8.710;2023-07-31T00:24:51;2.47;;;1.02;;
40953;SDS011;26686;50.130;8.710;2023-07-31T00:29:53;2.13;;;1.58;;
40953;SDS011;26686;50.130;8.710;2023-07-31T00:34:55;4.05;;;1.40;;
40953;SDS011;26686;50.130;8.710;2023-07-31T00:39:56;2.45;;;1.30;;
40953;SDS011;26686;50.130;8.710;2023-07-31T00:44:57;3.70;;;1.58;;
40953;SDS011;26686;50.130;8.710;2023-07-31T00:49:59;5.68;;;1.35;;
40953;SDS011;26686;50.130;8.710;2023-07-31T00:55:00;3.70;;;1.52;;
40953;SDS011;26686;50.130;8.710;2023-07-31T01:00:02;4.55;;;1.50;;
40953;SDS011;26686;50.130;8.710;2023-07-31T01:05:04;4.25;;;1.60;;
40953;SDS011;26686;50.130;8.710;2023-07-31T01:10:16;3.95;;;1.83;;
40953;SDS011;26686;50.130;8.710;2023-07-31T01:15:24;3.67;;;1.02;;
40953;SDS011;26686;50.130;8.710;2023-07-31T01:20:26;3.25;;;1.30;;
40953;SDS011;26686;50.130;8.710;2023-07-31T01:30:55;3.05;;;1.67;;
40953;SDS011;26686;50.130;8.710;2023-07-31T01:36:01;4.00;;;1.58;;
40953;SDS011;26686;50.130;8.710;2023-07-31T01:41:03;3.78;;;1.60;;
40953;SDS011;26686;50.130;8.710;2023-07-31T01:46:04;3.28;;;1.00;;
40953;SDS011;26686;50.130;8.710;2023-07-31T01:51:05;2.83;;;1.35;;
40953;SDS011;26686;50.130;8.710;2023-07-31T01:56:07;3.70;;;1.73;;
40953;SDS011;26686;50.130;8.710;2023-07-31T02:01:08;3.60;;;1.38;;
40953;SDS011;26686;50.130;8.710;2023-07-31T02:06:10;3.40;;;1.60;;
40953;SDS011;26686;50.130;8.710;2023-07-31T02:11:11;4.15;;;1.52;;
40953;SDS011;26686;50.130;8.710;2023-07-31T02:16:13;2.30;;;1.35;;
40953;SDS011;26686;50.130;8.710;2023-07-31T02:21:14;3.05;;;1.60;;
40953;SDS011;26686;50.130;8.710;2023-07-31T02:26:16;3.95;;;1.52;;
40953;SDS011;26686;50.130;8.710;2023-07-31T02:31:17;5.43;;;1.83;;
40953;SDS011;26686;50.130;8.710;2023-07-31T02:36:22;4.60;;;1.48;;
40953;SDS011;26686;50.130;8.710;2023-07-31T02:41:24;3.17;;;1.40;;
40953;SDS011;26686;50.130;8.710;2023-07-31T02:46:25;2.70;;;1.40;;
40953;SDS011;26686;50.130;8.710;2023-07-31T02:51:27;3.55;;;1.98;;
40953;SDS011;26686;50.130;8.710;2023-07-31T02:56:28;5.40;;;2.10;;
40953;SDS011;26686;50.130;8.710;2023-07-31T03:01:30;3.70;;;1.98;;
40953;SDS011;26686;50.130;8.710;2023-07-31T03:06:32;3.55;;;1.65;;
40953;SDS011;26686;50.130;8.710;2023-07-31T03:11:33;4.57;;;1.38;;
40953;SDS011;26686;50.130;8.710;2023-07-31T03:16:35;3.35;;;1.30;;
40953;SDS011;26686;50.130;8.710;2023-07-31T03:21:36;2.88;;;1.50;;
40953;SDS011;26686;50.130;8.710;2023-07-31T03:26:37;4.03;;;1.55;;
40953;SDS011;26686;50.130;8.710;2023-07-31T03:31:42;2.95;;;1.50;;
40953;SDS011;26686;50.130;8.710;2023-07-31T03:36:44;3.25;;;1.63;;
40953;SDS011;26686;50.130;8.710;2023-07-31T03:41:45;3.47;;;1.63;;
40953;SDS011;26686;50.130;8.710;2023-07-31T03:46:46;3.38;;;1.60;;
40953;SDS011;26686;50.130;8.710;2023-07-31T03:51:49;4.10;;;1.75;;
40953;SDS011;26686;50.130;8.710;2023-07-31T03:56:51;4.90;;;2.00;;
40953;SDS011;26686;50.130;8.710;2023-07-31T04:01:52;4.82;;;1.95;;
40953;SDS011;26686;50.130;8.710;2023-07-31T04:06:54;3.42;;;2.00;;
40953;SDS011;26686;50.130;8.710;2023-07-31T04:11:55;3.65;;;2.10;;
40953;SDS011;26686;50.130;8.710;2023-07-31T04:16:56;6.30;;;2.25;;
40953;SDS011;26686;50.130;8.710;2023-07-31T04:21:58;7.95;;;2.45;;
40953;SDS011;26686;50.130;8.710;2023-07-31T04:26:59;6.65;;;2.00;;
40953;SDS011;26686;50.130;8.710;2023-07-31T04:32:00;4.68;;;1.70;;
40953;SDS011;26686;50.130;8.710;2023-07-31T04:37:02;4.57;;;2.53;;
40953;SDS011;26686;50.130;8.710;2023-07-31T04:42:04;2.90;;;1.77;;
40953;SDS011;26686;50.130;8.710;2023-07-31T04:47:05;5.72;;;2.10;;
40953;SDS011;26686;50.130;8.710;2023-07-31T04:52:07;5.10;;;2.15;;
40953;SDS011;26686;50.130;8.710;2023-07-31T04:57:08;4.68;;;2.13;;
40953;SDS011;26686;50.130;8.710;2023-07-31T05:02:11;3.17;;;1.60;;
40953;SDS011;26686;50.130;8.710;2023-07-31T05:07:13;6.28;;;1.70;;
40953;SDS011;26686;50.130;8.710;2023-07-31T05:12:15;6.13;;;2.35;;
40953;SDS011;26686;50.130;8.710;2023-07-31T05:17:16;4.68;;;1.75;;
40953;SDS011;26686;50.130;8.710;2023-07-31T05:22:17;5.13;;;2.08;;
40953;SDS011;26686;50.130;8.710;2023-07-31T05:27:19;4.68;;;2.15;;
40953;SDS011;26686;50.130;8.710;2023-07-31T05:32:21;6.75;;;2.22;;
40953;SDS011;26686;50.130;8.710;2023-07-31T05:37:25;4.47;;;1.90;;
40953;SDS011;26686;50.130;8.710;2023-07-31T05:42:26;5.95;;;2.22;;
40953;SDS011;26686;50.130;8.710;2023-07-31T05:47:28;5.53;;;2.15;;
40953;SDS011;26686;50.130;8.710;2023-07-31T05:52:29;6.07;;;2.17;;
40953;SDS011;26686;50.130;8.710;2023-07-31T05:57:30;5.25;;;1.65;;
40953;SDS011;26686;50.130;8.710;2023-07-31T06:02:32;5.25;;;1.70;;
40953;SDS011;26686;50.130;8.710;2023-07-31T06:07:37;3.20;;;1.83;;
40953;SDS011;26686;50.130;8.710;2023-07-31T06:12:38;5.18;;;2.40;;
40953;SDS011;26686;50.130;8.710;2023-07-31T06:17:40;3.70;;;2.22;;
40953;SDS011;26686;50.130;8.710;2023-07-31T06:22:42;5.47;;;2.17;;
40953;SDS011;26686;50.130;8.710;2023-07-31T06:27:44;3.28;;;1.70;;
40953;SDS011;26686;50.130;8.710;2023-07-31T06:32:45;6.10;;;2.05;;
40953;SDS011;26686;50.130;8.710;2023-07-31T06:37:46;4.40;;;2.13;;
40953;SDS011;26686;50.130;8.710;2023-07-31T06:42:48;5.97;;;1.75;;
40953;SDS011;26686;50.130;8.710;2023-07-31T06:47:49;2.72;;;2.00;;
40953;SDS011;26686;50.130;8.710;2023-07-31T06:52:51;5.13;;;2.38;;
40953;SDS011;26686;50.130;8.710;2023-07-31T06:57:53;3.92;;;1.90;;
40953;SDS011;26686;50.130;8.710;2023-07-31T07:02:55;4.30;;;2.08;;
40953;SDS011;26686;50.130;8.710;2023-07-31T07:07:57;3.58;;;2.15;;
40953;SDS011;26686;50.130;8.710;2023-07-31T07:12:59;5.97;;;2.00;;
40953;SDS011;26686;50.130;8.710;2023-07-31T07:18:00;5.55;;;2.15;;
40953;SDS011;26686;50.130;8.710;2023-07-31T07:23:02;3.75;;;2.30;;
40953;SDS011;26686;50.130;8.710;2023-07-31T07:28:03;6.72;;;2.72;;
40953;SDS011;26686;50.130;8.710;2023-07-31T07:33:05;3.58;;;2.08;;
40953;SDS011;26686;50.130;8.710;2023-07-31T07:38:07;4.65;;;2.20;;
40953;SDS011;26686;50.130;8.710;2023-07-31T07:43:08;3.50;;;2.08;;
40953;SDS011;26686;50.130;8.710;2023-07-31T07:48:09;5.60;;;2.97;;
40953;SDS011;26686;50.130;8.710;2023-07-31T07:53:11;5.97;;;1.90;;
40953;SDS011;26686;50.130;8.710;2023-07-31T07:58:13;5.75;;;1.92;;
40953;SDS011;26686;50.130;8.710;2023-07-31T08:03:14;3.00;;;1.77;;
40953;SDS011;26686;50.130;8.710;2023-07-31T08:08:16;3.83;;;1.50;;
40953;SDS011;26686;50.130;8.710;2023-07-31T08:13:17;4.78;;;1.98;;
40953;SDS011;26686;50.130;8.710;2023-07-31T08:18:19;4.70;;;2.90;;
40953;SDS011;26686;50.130;8.710;2023-07-31T08:23:21;2.53;;;1.58;;
40953;SDS011;26686;50.130;8.710;2023-07-31T08:28:22;5.20;;;2.30;;
40953;SDS011;26686;50.130;8.710;2023-07-31T08:33:24;3.95;;;1.50;;
40953;SDS011;26686;50.130;8.710;2023-07-31T08:38:25;4.22;;;2.25;;
40953;SDS011;26686;50.130;8.710;2023-07-31T08:43:27;5.13;;;2.20;;
40953;SDS011;26686;50.130;8.710;2023-07-31T08:48:29;5.82;;;1.67;;
40953;SDS011;26686;50.130;8.710;2023-07-31T08:53:31;3.00;;;2.00;;
40953;SDS011;26686;50.130;8.710;2023-07-31T08:58:33;5.85;;;2.15;;
40953;SDS011;26686;50.130;8.710;2023-07-31T09:03:37;4.28;;;2.13;;
40953;SDS011;26686;50.130;8.710;2023-07-31T09:08:40;2.10;;;1.48;;
40953;SDS011;26686;50.130;8.710;2023-07-31T09:13:43;5.38;;;1.92;;
40953;SDS011;26686;50.130;8.710;2023-07-31T09:18:54;5.35;;;2.15;;
40953;SDS011;26686;50.130;8.710;2023-07-31T09:23:57;6.13;;;2.30;;
40953;SDS011;26686;50.130;8.710;2023-07-31T09:28:59;5.47;;;1.90;;
40953;SDS011;26686;50.130;8.710;2023-07-31T09:34:02;3.40;;;1.95;;
40953;SDS011;26686;50.130;8.710;2023-07-31T09:39:03;3.63;;;1.92;;
40953;SDS011;26686;50.130;8.710;2023-07-31T09:44:05;5.40;;;1.85;;
40953;SDS011;26686;50.130;8.710;2023-07-31T09:49:10;3.95;;;2.13;;
40953;SDS011;26686;50.130;8.710;2023-07-31T09:54:16;3.70;;;2.00;;
40953;SDS011;26686;50.130;8.710;2023-07-31T09:59:18;3.60;;;2.00;;
40953;SDS011;26686;50.130;8.710;2023-07-31T10:04:25;4.20;;;2.17;;
40953;SDS011;26686;50.130;8.710;2023-07-31T10:09:29;3.38;;;2.03;;
40953;SDS011;26686;50.130;8.710;2023-07-31T10:14:32;4.95;;;1.85;;
40953;SDS011;26686;50.130;8.710;2023-07-31T10:19:35;7.07;;;2.08;;
40953;SDS011;26686;50.130;8.710;2023-07-31T10:24:37;4.53;;;2.58;;
40953;SDS011;26686;50.130;8.710;2023-07-31T10:29:39;4.28;;;2.08;;
40953;SDS011;26686;50.130;8.710;2023-07-31T10:39:44;7.40;;;2.53;;
40953;SDS011;26686;50.130;8.710;2023-07-31T10:45:04;4.32;;;2.00;;
40953;SDS011;26686;50.130;8.710;2023-07-31T10:50:11;6.32;;;2.30;;
40953;SDS011;26686;50.130;8.710;2023-07-31T10:55:30;6.85;;;2.17;;
40953;SDS011;26686;50.130;8.710;2023-07-31T11:00:33;5.35;;;2.15;;
40953;SDS011;26686;50.130;8.710;2023-07-31T11:21:06;8.15;;;2.85;;
40953;SDS011;26686;50.130;8.710;2023-07-31T11:26:08;5.13;;;1.80;;
40953;SDS011;26686;50.130;8.710;2023-07-31T11:31:10;3.97;;;1.90;;
40953;SDS011;26686;50.130;8.710;2023-07-31T11:36:19;2.85;;;1.75;;
40953;SDS011;26686;50.130;8.710;2023-07-31T11:41:21;4.20;;;2.00;;
40953;SDS011;26686;50.130;8.710;2023-07-31T11:46:23;4.15;;;2.17;;
40953;SDS011;26686;50.130;8.710;2023-07-31T11:51:25;4.10;;;2.00;;
40953;SDS011;26686;50.130;8.710;2023-07-31T11:56:27;5.43;;;2.50;;
40953;SDS011;26686;50.130;8.710;2023-07-31T12:01:29;4.30;;;1.60;;
40953;SDS011;26686;50.130;8.710;2023-07-31T12:06:35;3.97;;;2.00;;
40953;SDS011;26686;50.130;8.710;2023-07-31T12:11:44;4.68;;;2.40;;
40953;SDS011;26686;50.130;8.710;2023-07-31T12:16:46;3.17;;;2.10;;
40953;SDS011;26686;50.130;8.710;2023-07-31T12:21:49;2.80;;;1.98;;
40953;SDS011;26686;50.130;8.710;2023-07-31T12:26:50;5.27;;;2.43;;
40953;SDS011;26686;50.130;8.710;2023-07-31T12:31:53;4.13;;;2.37;;
40953;SDS011;26686;50.130;8.710;2023-07-31T12:36:55;2.70;;;2.20;;
40953;SDS011;26686;50.130;8.710;2023-07-31T12:41:56;3.17;;;2.33;;
40953;SDS011;26686;50.130;8.710;2023-07-31T12:46:57;5.53;;;2.40;;
40953;SDS011;26686;50.130;8.710;2023-07-31T12:51:59;5.43;;;3.17;;
40953;SDS011;26686;50.130;8.710;2023-07-31T12:57:00;4.43;;;2.67;;
40953;SDS011;26686;50.130;8.710;2023-07-31T13:02:02;3.55;;;2.20;;
40953;SDS011;26686;50.130;8.710;2023-07-31T13:07:03;5.63;;;2.20;;
40953;SDS011;26686;50.130;8.710;2023-07-31T13:12:05;4.15;;;1.92;;
40953;SDS011;26686;50.130;8.710;2023-07-31T13:17:07;4.78;;;2.17;;
40953;SDS011;26686;50.130;8.710;2023-07-31T13:22:08;3.53;;;2.03;;
40953;SDS011;26686;50.130;8.710;2023-07-31T13:27:10;2.70;;;1.85;;
40953;SDS011;26686;50.130;8.710;2023-07-31T13:32:11;4.30;;;2.00;;
40953;SDS011;26686;50.130;8.710;2023-07-31T13:37:13;4.55;;;2.20;;
40953;SDS011;26686;50.130;8.710;2023-07-31T13:42:15;3.43;;;2.00;;
40953;SDS011;26686;50.130;8.710;2023-07-31T13:47:17;8.43;;;3.45;;
40953;SDS011;26686;50.130;8.710;2023-07-31T13:52:18;4.18;;;2.50;;
40953;SDS011;26686;50.130;8.710;2023-07-31T13:57:20;4.65;;;2.17;;
40953;SDS011;26686;50.130;8.710;2023-07-31T14:02:21;3.72;;;2.00;;
40953;SDS011;26686;50.130;8.710;2023-07-31T14:07:23;3.70;;;1.90;;
40953;SDS011;26686;50.130;8.710;2023-07-31T14:12:24;5.18;;;2.42;;
40953;SDS011;26686;50.130;8.710;2023-07-31T14:17:32;3.72;;;2.05;;
40953;SDS011;26686;50.130;8.710;2023-07-31T14:22:33;5.05;;;1.83;;
40953;SDS011;26686;50.130;8.710;2023-07-31T14:27:35;3.25;;;2.13;;
40953;SDS011;26686;50.130;8.710;2023-07-31T14:32:37;3.58;;;2.10;;
40953;SDS011;26686;50.130;8.710;2023-07-31T14:37:39;4.60;;;1.98;;
40953;SDS011;26686;50.130;8.710;2023-07-31T14:42:42;5.78;;;2.20;;
40953;SDS011;26686;50.130;8.710;2023-07-31T14:47:43;3.92;;;1.83;;
40953;SDS011;26686;50.130;8.710;2023-07-31T14:52:45;4.60;;;2.33;;
40953;SDS011;26686;50.130;8.710;2023-07-31T14:57:47;5.80;;;2.90;;
40953;SDS011;26686;50.130;8.710;2023-07-31T15:02:48;4.57;;;2.55;;
40953;SDS011;26686;50.130;8.710;2023-07-31T15:07:50;4.45;;;2.30;;
40953;SDS011;26686;50.130;8.710;2023-07-31T15:12:53;5.65;;;2.08;;
40953;SDS011;26686;50.130;8.710;2023-07-31T15:17:54;6.43;;;2.83;;
40953;SDS011;26686;50.130;8.710;2023-07-31T15:22:56;3.75;;;1.98;;
40953;SDS011;26686;50.130;8.710;2023-07-31T15:27:58;3.85;;;1.70;;
40953;SDS011;26686;50.130;8.710;2023-07-31T15:32:59;6.28;;;1.70;;
40953;SDS011;26686;50.130;8.710;2023-07-31T15:38:01;3.22;;;1.50;;
40953;SDS011;26686;50.130;8.710;2023-07-31T15:43:02;4.00;;;1.65;;
40953;SDS011;26686;50.130;8.710;2023-07-31T15:48:05;2.37;;;1.40;;
40953;SDS011;26686;50.130;8.710;2023-07-31T15:53:06;3.67;;;1.50;;
40953;SDS011;26686;50.130;8.710;2023-07-31T15:58:08;2.13;;;1.33;;
40953;SDS011;26686;50.130;8.710;2023-07-31T16:03:09;3.38;;;1.35;;
40953;SDS011;26686;50.130;8.710;2023-07-31T16:08:11;6.03;;;1.25;;
40953;SDS011;26686;50.130;8.710;2023-07-31T16:13:12;2.08;;;1.20;;
40953;SDS011;26686;50.130;8.710;2023-07-31T16:18:13;1.48;;;0.90;;
40953;SDS011;26686;50.130;8.710;2023-07-31T16:23:15;1.48;;;0.80;;
40953;SDS011;26686;50.130;8.710;2023-07-31T16:28:16;3.90;;;1.27;;
40953;SDS011;26686;50.130;8.710;2023-07-31T16:33:18;1.92;;;0.82;;
40953;SDS011;26686;50.130;8.710;2023-07-31T16:38:19;1.95;;;1.05;;
40953;SDS011;26686;50.130;8.710;2023-07-31T16:43:21;2.30;;;1.08;;
40953;SDS011;26686;50.130;8.710;2023-07-31T16:48:22;2.85;;;1.08;;
40953;SDS011;26686;50.130;8.710;2023-07-31T16:53:23;2.75;;;1.23;;
40953;SDS011;26686;50.130;8.710;2023-07-31T16:58:25;2.38;;;1.10;;
40953;SDS011;26686;50.130;8.710;2023-07-31T17:03:26;6.60;;;5.70;;
40953;SDS011;26686;50.130;8.710;2023-07-31T17:08:28;4.18;;;3.85;;
40953;SDS011;26686;50.130;8.710;2023-07-31T17:13:29;5.18;;;3.13;;
40953;SDS011;26686;50.130;8.710;2023-07-31T17:18:31;3.80;;;1.88;;
40953;SDS011;26686;50.130;8.710;2023-07-31T17:23:32;3.22;;;1.58;;
40953;SDS011;26686;50.130;8.710;2023-07-31T17:28:34;5.28;;;1.60;;
40953;SDS011;26686;50.130;8.710;2023-07-31T17:33:35;4.03;;;1.85;;
40953;SDS011;26686;50.130;8.710;2023-07-31T17:38:37;3.45;;;2.22;;
40953;SDS011;26686;50.130;8.710;2023-07-31T17:43:38;3.63;;;2.20;;
40953;SDS011;26686;50.130;8.710;2023-07-31T17:48:39;4.07;;;2.30;;
40953;SDS011;26686;50.130;8.710;2023-07-31T17:53:42;3.90;;;2.38;;
40953;SDS011;26686;50.130;8.710;2023-07-31T17:58:45;3.72;;;2.38;;
40953;SDS011;26686;50.130;8.710;2023-07-31T18:03:46;4.28;;;2.40;;
40953;SDS011;26686;50.130;8.710;2023-07-31T18:08:48;4.18;;;3.00;;
40953;SDS011;26686;50.130;8.710;2023-07-31T18:13:50;3.17;;;2.45;;
40953;SDS011;26686;50.130;8.710;2023-07-31T18:18:51;10.10;;;4.88;;
40953;SDS011;26686;50.130;8.710;2023-07-31T18:23:52;8.77;;;4.18;;
40953;SDS011;26686;50.130;8.710;2023-07-31T18:28:57;3.05;;;2.38;;
40953;SDS011;26686;50.130;8.710;2023-07-31T18:33:59;5.13;;;2.45;;
40953;SDS011;26686;50.130;8.710;2023-07-31T18:39:00;4.43;;;2.70;;
40953;SDS011;26686;50.130;8.710;2023-07-31T18:44:02;3.03;;;2.42;;
40953;SDS011;26686;50.130;8.710;2023-07-31T18:49:03;3.58;;;2.30;;
40953;SDS011;26686;50.130;8.710;2023-07-31T18:54:05;5.25;;;2.95;;
40953;SDS011;26686;50.130;8.710;2023-07-31T18:59:07;3.08;;;1.80;;
40953;SDS011;26686;50.130;8.710;2023-07-31T19:04:08;5.05;;;2.00;;
40953;SDS011;26686;50.130;8.710;2023-07-31T19:09:10;3.78;;;2.10;;
40953;SDS011;26686;50.130;8.710;2023-07-31T19:19:14;4.63;;;2.17;;
40953;SDS011;26686;50.130;8.710;2023-07-31T19:24:16;3.50;;;1.85;;
40953;SDS011;26686;50.130;8.710;2023-07-31T19:29:17;5.30;;;2.35;;
40953;SDS011;26686;50.130;8.710;2023-07-31T19:34:19;5.85;;;2.85;;
40953;SDS011;26686;50.130;8.710;2023-07-31T19:39:20;3.30;;;2.58;;
40953;SDS011;26686;50.130;8.710;2023-07-31T19:44:23;4.03;;;2.47;;
40953;SDS011;26686;50.130;8.710;2023-07-31T19:49:25;5.05;;;2.50;;
40953;SDS011;26686;50.130;8.710;2023-07-31T19:54:28;5.03;;;2.60;;
40953;SDS011;26686;50.130;8.710;2023-07-31T19:59:29;3.40;;;2.60;;
40953;SDS011;26686;50.130;8.710;2023-07-31T20:04:31;3.75;;;2.38;;
40953;SDS011;26686;50.130;8.710;2023-07-31T20:09:32;4.65;;;2.70;;
40953;SDS011;26686;50.130;8.710;2023-07-31T20:14:34;5.55;;;2.50;;
40953;SDS011;26686;50.130;8.710;2023-07-31T20:19:35;4.32;;;1.80;;
40953;SDS011;26686;50.130;8.710;2023-07-31T20:24:37;4.60;;;2.22;;
40953;SDS011;26686;50.130;8.710;2023-07-31T20:29:38;3.88;;;2.25;;
40953;SDS011;26686;50.130;8.710;2023-07-31T20:34:41;4.80;;;2.55;;
40953;SDS011;26686;50.130;8.710;2023-07-31T20:39:42;3.63;;;2.03;;
40953;SDS011;26686;50.130;8.710;2023-07-31T20:44:44;4.22;;;2.28;;
40953;SDS011;26686;50.130;8.710;2023-07-31T20:49:45;4.80;;;2.40;;
40953;SDS011;26686;50.130;8.710;2023-07-31T20:54:47;2.90;;;2.47;;
40953;SDS011;26686;50.130;8.710;2023-07-31T20:59:49;4.13;;;2.30;;
40953;SDS011;26686;50.130;8.710;2023-07-31T21:04:50;5.03;;;2.35;;
40953;SDS011;26686;50.130;8.710;2023-07-31T21:09:52;3.92;;;2.80;;
40953;SDS011;26686;50.130;8.710;2023-07-31T21:14:53;4.47;;;2.60;;
40953;SDS011;26686;50.130;8.710;2023-07-31T21:19:55;3.15;;;2.63;;
40953;SDS011;26686;50.130;8.710;2023-07-31T21:24:56;4.55;;;3.08;;
40953;SDS011;26686;50.130;8.710;2023-07-31T21:29:58;4.95;;;3.20;;
40953;SDS011;26686;50.130;8.710;2023-07-31T21:35:00;6.53;;;3.85;;
40953;SDS011;26686;50.130;8.710;2023-07-31T21:40:02;6.40;;;2.83;;
40953;SDS011;26686;50.130;8.710;2023-07-31T21:45:04;4.00;;;3.05;;
40953;SDS011;26686;50.130;8.710;2023-07-31T21:50:07;4.88;;;3.80;;
40953;SDS011;26686;50.130;8.710;2023-07-31T21:55:10;5.53;;;2.83;;
40953;SDS011;26686;50.130;8.710;2023-07-31T22:00:12;4.82;;;2.72;;
40953;SDS011;26686;50.130;8.710;2023-07-31T22:05:13;3.35;;;2.60;;
40953;SDS011;26686;50.130;8.710;2023-07-31T22:10:15;5.22;;;2.90;;
40953;SDS011;26686;50.130;8.710;2023-07-31T22:15:16;4.90;;;3.30;;
40953;SDS011;26686;50.130;8.710;2023-07-31T22:20:18;3.20;;;2.58;;
40953;SDS011;26686;50.130;8.710;2023-07-31T22:25:20;4.90;;;2.97;;
40953;SDS011;26686;50.130;8.710;2023-07-31T22:30:21;4.53;;;3.13;;
40953;SDS011;26686;50.130;8.710;2023-07-31T22:35:22;6.55;;;3.60;;
40953;SDS011;26686;50.130;8.710;2023-07-31T22:40:25;5.50;;;3.40;;
40953;SDS011;26686;50.130;8.710;2023-07-31T22:45:26;4.75;;;3.33;;
40953;SDS011;26686;50.130;8.710;2023-07-31T22:50:28;6.03;;;3.47;;
40953;SDS011;26686;50.130;8.710;2023-07-31T22:55:29;4.30;;;2.85;;
40953;SDS011;26686;50.130;8.710;2023-07-31T23:00:31;3.53;;;2.85;;
40953;SDS011;26686;50.130;8.710;2023-07-31T23:05:32;4.95;;;3.13;;
40953;SDS011;26686;50.130;8.710;2023-07-31T23:10:34;6.78;;;3.22;;
40953;SDS011;26686;50.130;8.710;2023-07-31T23:15:37;3.73;;;3.13;;
40953;SDS011;26686;50.130;8.710;2023-07-31T23:20:38;4.75;;;2.92;;
40953;SDS011;26686;50.130;8.710;2023-07-31T23:25:39;5.20;;;3.08;;
40953;SDS011;26686;50.130;8.710;2023-07-31T23:30:41;4.20;;;3.08;;
40953;SDS011;26686;50.130;8.710;2023-07-31T23:35:42;6.00;;;2.95;;
40953;SDS011;26686;50.130;8.710;2023-07-31T23:40:44;3.78;;;2.92;;
40953;SDS011;26686;50.130;8.710;2023-07-31T23:45:45;5.40;;;3.55;;
40953;SDS011;26686;50.130;8.710;2023-07-31T23:50:47;5.13;;;2.95;;
40953;SDS011;26686;50.130;8.710;2023-07-31T23:55:48;4.78;;;2.95;;
